sensor_id;sensor_type;location;lat;lon;timestamp;P1;durP1;ratioP1;P2;durP2;ratioP2
11839;SDS011;5979;50.800;4.904;2022-07-22T00:00:10;6.00;;;3.50;;
11839;SDS011;5979;50.800;4.904;2022-07-22T00:02:36;4.20;;;3.50;;
11839;SDS011;5979;50.800;4.904;2022-07-22T00:05:02;8.95;;;4.05;;
11839;SDS011;5979;50.800;4.904;2022-07-22T00:07:28;6.32;;;3.88;;
11839;SDS011;5979;50.800;4.904;2022-07-22T00:09:54;11.38;;;4.80;;
11839;SDS011;5979;50.800;4.904;2022-07-22T00:12:19;10.18;;;4.15;;
11839;SDS011;5979;50.800;4.904;2022-07-22T00:14:45;5.70;;;3.50;;
11839;SDS011;5979;50.800;4.904;2022-07-22T00:17:11;8.07;;;4.20;;
11839;SDS011;5979;50.800;4.904;2022-07-22T00:19:36;6.18;;;3.47;;
11839;SDS011;5979;50.800;4.904;2022-07-22T00:22:02;12.25;;;4.55;;
11839;SDS011;5979;50.800;4.904;2022-07-22T00:24:28;8.88;;;3.60;;
11839;SDS011;5979;50.800;4.904;2022-07-22T00:26:54;7.05;;;3.97;;
11839;SDS011;5979;50.800;4.904;2022-07-22T00:29:20;8.85;;;4.18;;
11839;SDS011;5979;50.800;4.904;2022-07-22T00:31:45;7.13;;;3.58;;
11839;SDS011;5979;50.800;4.904;2022-07-22T00:34:11;5.05;;;4.18;;
11839;SDS011;5979;50.800;4.904;2022-07-22T00:36:37;6.78;;;3.55;;
11839;SDS011;5979;50.800;4.904;2022-07-22T00:39:03;5.18;;;3.50;;
11839;SDS011;5979;50.800;4.904;2022-07-22T00:41:29;5.75;;;3.67;;
11839;SDS011;5979;50.800;4.904;2022-07-22T00:43:57;5.53;;;3.55;;
11839;SDS011;5979;50.800;4.904;2022-07-22T00:46:24;6.35;;;3.58;;
11839;SDS011;5979;50.800;4.904;2022-07-22T00:48:51;7.25;;;3.65;;
11839;SDS011;5979;50.800;4.904;2022-07-22T00:51:18;3.45;;;3.15;;
11839;SDS011;5979;50.800;4.904;2022-07-22T00:53:45;6.45;;;3.28;;
11839;SDS011;5979;50.800;4.904;2022-07-22T00:56:11;4.45;;;3.10;;
11839;SDS011;5979;50.800;4.904;2022-07-22T00:58:38;3.72;;;3.35;;
11839;SDS011;5979;50.800;4.904;2022-07-22T01:01:04;5.53;;;3.50;;
11839;SDS011;5979;50.800;4.904;2022-07-22T01:03:30;8.10;;;3.60;;
11839;SDS011;5979;50.800;4.904;2022-07-22T01:05:56;7.05;;;3.60;;
11839;SDS011;5979;50.800;4.904;2022-07-22T01:08:22;5.43;;;3.45;;
11839;SDS011;5979;50.800;4.904;2022-07-22T01:10:48;4.13;;;3.58;;
11839;SDS011;5979;50.800;4.904;2022-07-22T01:13:14;7.28;;;4.20;;
11839;SDS011;5979;50.800;4.904;2022-07-22T01:15:39;7.10;;;3.60;;
11839;SDS011;5979;50.800;4.904;2022-07-22T01:18:05;7.38;;;3.80;;
11839;SDS011;5979;50.800;4.904;2022-07-22T01:20:31;10.13;;;3.75;;
11839;SDS011;5979;50.800;4.904;2022-07-22T01:22:56;4.18;;;3.30;;
11839;SDS011;5979;50.800;4.904;2022-07-22T01:25:22;3.80;;;3.35;;
11839;SDS011;5979;50.800;4.904;2022-07-22T01:27:48;6.03;;;3.42;;
11839;SDS011;5979;50.800;4.904;2022-07-22T01:30:13;6.03;;;3.65;;
11839;SDS011;5979;50.800;4.904;2022-07-22T01:32:39;4.15;;;3.20;;
11839;SDS011;5979;50.800;4.904;2022-07-22T01:35:05;6.40;;;3.60;;
11839;SDS011;5979;50.800;4.904;2022-07-22T01:37:34;3.53;;;2.90;;
11839;SDS011;5979;50.800;4.904;2022-07-22T01:40:00;4.65;;;3.75;;
11839;SDS011;5979;50.800;4.904;2022-07-22T01:42:25;4.72;;;3.13;;
11839;SDS011;5979;50.800;4.904;2022-07-22T01:44:51;6.05;;;2.60;;
11839;SDS011;5979;50.800;4.904;2022-07-22T01:47:17;6.65;;;2.78;;
11839;SDS011;5979;50.800;4.904;2022-07-22T01:49:43;6.47;;;3.10;;
11839;SDS011;5979;50.800;4.904;2022-07-22T01:52:09;8.85;;;3.58;;
11839;SDS011;5979;50.800;4.904;2022-07-22T01:54:34;6.53;;;3.40;;
11839;SDS011;5979;50.800;4.904;2022-07-22T01:57:01;8.55;;;3.47;;
11839;SDS011;5979;50.800;4.904;2022-07-22T01:59:27;7.20;;;3.45;;
11839;SDS011;5979;50.800;4.904;2022-07-22T02:01:52;4.25;;;2.67;;
11839;SDS011;5979;50.800;4.904;2022-07-22T02:04:18;5.60;;;3.10;;
11839;SDS011;5979;50.800;4.904;2022-07-22T02:06:46;8.35;;;3.00;;
11839;SDS011;5979;50.800;4.904;2022-07-22T02:09:12;4.55;;;3.00;;
11839;SDS011;5979;50.800;4.904;2022-07-22T02:11:38;6.88;;;3.22;;
11839;SDS011;5979;50.800;4.904;2022-07-22T02:14:04;5.43;;;3.15;;
11839;SDS011;5979;50.800;4.904;2022-07-22T02:16:29;6.18;;;2.78;;
11839;SDS011;5979;50.800;4.904;2022-07-22T02:18:55;12.77;;;3.25;;
11839;SDS011;5979;50.800;4.904;2022-07-22T02:21:21;6.82;;;3.58;;
11839;SDS011;5979;50.800;4.904;2022-07-22T02:23:47;3.50;;;3.20;;
11839;SDS011;5979;50.800;4.904;2022-07-22T02:26:12;5.07;;;3.28;;
11839;SDS011;5979;50.800;4.904;2022-07-22T02:28:38;11.25;;;3.17;;
11839;SDS011;5979;50.800;4.904;2022-07-22T02:31:03;7.78;;;3.60;;
11839;SDS011;5979;50.800;4.904;2022-07-22T02:33:29;7.53;;;3.42;;
11839;SDS011;5979;50.800;4.904;2022-07-22T02:35:55;12.85;;;3.33;;
11839;SDS011;5979;50.800;4.904;2022-07-22T02:38:21;10.10;;;3.47;;
11839;SDS011;5979;50.800;4.904;2022-07-22T02:40:47;10.10;;;3.45;;
11839;SDS011;5979;50.800;4.904;2022-07-22T02:43:13;10.38;;;3.30;;
11839;SDS011;5979;50.800;4.904;2022-07-22T02:45:38;5.43;;;3.63;;
11839;SDS011;5979;50.800;4.904;2022-07-22T02:48:04;9.40;;;3.80;;
11839;SDS011;5979;50.800;4.904;2022-07-22T02:50:30;7.68;;;3.40;;
11839;SDS011;5979;50.800;4.904;2022-07-22T02:52:57;6.43;;;2.88;;
11839;SDS011;5979;50.800;4.904;2022-07-22T02:55:23;8.18;;;4.07;;
11839;SDS011;5979;50.800;4.904;2022-07-22T02:57:49;12.73;;;4.13;;
11839;SDS011;5979;50.800;4.904;2022-07-22T03:00:15;11.20;;;3.92;;
11839;SDS011;5979;50.800;4.904;2022-07-22T03:02:45;9.35;;;3.60;;
11839;SDS011;5979;50.800;4.904;2022-07-22T03:05:11;5.60;;;3.17;;
11839;SDS011;5979;50.800;4.904;2022-07-22T03:07:37;5.32;;;3.47;;
11839;SDS011;5979;50.800;4.904;2022-07-22T03:10:03;6.13;;;2.92;;
11839;SDS011;5979;50.800;4.904;2022-07-22T03:12:29;9.15;;;3.40;;
11839;SDS011;5979;50.800;4.904;2022-07-22T03:14:55;8.52;;;3.53;;
11839;SDS011;5979;50.800;4.904;2022-07-22T03:17:22;5.55;;;3.15;;
11839;SDS011;5979;50.800;4.904;2022-07-22T03:19:48;6.22;;;3.53;;
11839;SDS011;5979;50.800;4.904;2022-07-22T03:22:13;5.38;;;3.20;;
11839;SDS011;5979;50.800;4.904;2022-07-22T03:24:39;5.63;;;3.03;;
11839;SDS011;5979;50.800;4.904;2022-07-22T03:27:04;5.22;;;3.08;;
11839;SDS011;5979;50.800;4.904;2022-07-22T03:29:30;4.38;;;2.97;;
11839;SDS011;5979;50.800;4.904;2022-07-22T03:31:56;6.45;;;3.05;;
11839;SDS011;5979;50.800;4.904;2022-07-22T03:34:21;3.60;;;3.30;;
11839;SDS011;5979;50.800;4.904;2022-07-22T03:36:47;4.43;;;3.00;;
11839;SDS011;5979;50.800;4.904;2022-07-22T03:39:12;2.88;;;2.67;;
11839;SDS011;5979;50.800;4.904;2022-07-22T03:41:38;5.65;;;2.90;;
11839;SDS011;5979;50.800;4.904;2022-07-22T03:44:04;2.88;;;2.67;;
11839;SDS011;5979;50.800;4.904;2022-07-22T03:46:29;6.85;;;2.72;;
11839;SDS011;5979;50.800;4.904;2022-07-22T03:48:55;9.23;;;3.05;;
11839;SDS011;5979;50.800;4.904;2022-07-22T03:51:20;4.85;;;2.92;;
11839;SDS011;5979;50.800;4.904;2022-07-22T03:53:46;8.15;;;3.15;;
11839;SDS011;5979;50.800;4.904;2022-07-22T03:56:12;8.68;;;3.47;;
11839;SDS011;5979;50.800;4.904;2022-07-22T03:58:37;6.38;;;2.80;;
11839;SDS011;5979;50.800;4.904;2022-07-22T04:01:03;8.73;;;2.97;;
11839;SDS011;5979;50.800;4.904;2022-07-22T04:03:29;6.30;;;3.20;;
11839;SDS011;5979;50.800;4.904;2022-07-22T04:05:55;5.68;;;2.97;;
11839;SDS011;5979;50.800;4.904;2022-07-22T04:08:20;4.25;;;3.00;;
11839;SDS011;5979;50.800;4.904;2022-07-22T04:10:46;4.63;;;3.13;;
11839;SDS011;5979;50.800;4.904;2022-07-22T04:13:12;6.72;;;3.45;;
11839;SDS011;5979;50.800;4.904;2022-07-22T04:15:37;13.07;;;3.95;;
11839;SDS011;5979;50.800;4.904;2022-07-22T04:18:03;13.95;;;4.22;;
11839;SDS011;5979;50.800;4.904;2022-07-22T04:20:29;8.40;;;2.97;;
11839;SDS011;5979;50.800;4.904;2022-07-22T04:22:54;10.52;;;3.03;;
11839;SDS011;5979;50.800;4.904;2022-07-22T04:25:20;6.35;;;3.15;;
11839;SDS011;5979;50.800;4.904;2022-07-22T04:27:45;3.33;;;3.00;;
11839;SDS011;5979;50.800;4.904;2022-07-22T04:30:11;9.13;;;3.03;;
11839;SDS011;5979;50.800;4.904;2022-07-22T04:32:37;9.50;;;3.30;;
11839;SDS011;5979;50.800;4.904;2022-07-22T04:35:03;11.55;;;3.22;;
11839;SDS011;5979;50.800;4.904;2022-07-22T04:37:30;5.82;;;3.13;;
11839;SDS011;5979;50.800;4.904;2022-07-22T04:39:56;6.55;;;3.45;;
11839;SDS011;5979;50.800;4.904;2022-07-22T04:42:21;3.83;;;3.22;;
11839;SDS011;5979;50.800;4.904;2022-07-22T04:44:47;7.70;;;3.47;;
11839;SDS011;5979;50.800;4.904;2022-07-22T04:47:12;3.85;;;3.55;;
11839;SDS011;5979;50.800;4.904;2022-07-22T04:49:38;4.90;;;3.88;;
11839;SDS011;5979;50.800;4.904;2022-07-22T04:52:04;5.95;;;3.45;;
11839;SDS011;5979;50.800;4.904;2022-07-22T04:54:30;4.57;;;3.20;;
11839;SDS011;5979;50.800;4.904;2022-07-22T04:56:55;5.30;;;3.53;;
11839;SDS011;5979;50.800;4.904;2022-07-22T04:59:21;5.60;;;3.30;;
11839;SDS011;5979;50.800;4.904;2022-07-22T05:01:47;13.07;;;4.55;;
11839;SDS011;5979;50.800;4.904;2022-07-22T05:04:12;5.28;;;3.20;;
11839;SDS011;5979;50.800;4.904;2022-07-22T05:06:38;11.48;;;4.00;;
11839;SDS011;5979;50.800;4.904;2022-07-22T05:09:04;9.10;;;3.38;;
11839;SDS011;5979;50.800;4.904;2022-07-22T05:11:29;11.52;;;4.28;;
11839;SDS011;5979;50.800;4.904;2022-07-22T05:13:55;9.20;;;3.78;;
11839;SDS011;5979;50.800;4.904;2022-07-22T05:16:21;5.95;;;3.88;;
11839;SDS011;5979;50.800;4.904;2022-07-22T05:18:46;11.15;;;3.78;;
11839;SDS011;5979;50.800;4.904;2022-07-22T05:21:12;8.18;;;3.67;;
11839;SDS011;5979;50.800;4.904;2022-07-22T05:23:37;8.88;;;4.20;;
11839;SDS011;5979;50.800;4.904;2022-07-22T05:26:06;7.05;;;4.03;;
11839;SDS011;5979;50.800;4.904;2022-07-22T05:28:32;5.63;;;3.47;;
11839;SDS011;5979;50.800;4.904;2022-07-22T05:30:57;4.18;;;3.67;;
11839;SDS011;5979;50.800;4.904;2022-07-22T05:33:23;5.32;;;4.03;;
11839;SDS011;5979;50.800;4.904;2022-07-22T05:35:49;9.68;;;3.78;;
11839;SDS011;5979;50.800;4.904;2022-07-22T05:38:14;7.65;;;3.65;;
11839;SDS011;5979;50.800;4.904;2022-07-22T05:40:40;5.22;;;3.92;;
11839;SDS011;5979;50.800;4.904;2022-07-22T05:43:06;11.63;;;4.63;;
11839;SDS011;5979;50.800;4.904;2022-07-22T05:45:31;10.55;;;3.92;;
11839;SDS011;5979;50.800;4.904;2022-07-22T05:47:57;4.25;;;3.50;;
11839;SDS011;5979;50.800;4.904;2022-07-22T05:50:23;7.03;;;4.07;;
11839;SDS011;5979;50.800;4.904;2022-07-22T05:52:49;7.03;;;4.25;;
11839;SDS011;5979;50.800;4.904;2022-07-22T05:55:14;6.97;;;4.15;;
11839;SDS011;5979;50.800;4.904;2022-07-22T05:57:40;4.40;;;3.88;;
11839;SDS011;5979;50.800;4.904;2022-07-22T06:00:06;7.15;;;4.60;;
11839;SDS011;5979;50.800;4.904;2022-07-22T06:02:32;6.40;;;4.13;;
11839;SDS011;5979;50.800;4.904;2022-07-22T06:04:57;7.07;;;4.10;;
11839;SDS011;5979;50.800;4.904;2022-07-22T06:07:25;4.05;;;3.65;;
11839;SDS011;5979;50.800;4.904;2022-07-22T06:09:51;7.78;;;4.75;;
11839;SDS011;5979;50.800;4.904;2022-07-22T06:12:17;6.60;;;5.03;;
11839;SDS011;5979;50.800;4.904;2022-07-22T06:14:43;5.13;;;4.68;;
11839;SDS011;5979;50.800;4.904;2022-07-22T06:17:09;6.70;;;4.95;;
11839;SDS011;5979;50.800;4.904;2022-07-22T06:19:35;6.65;;;4.75;;
11839;SDS011;5979;50.800;4.904;2022-07-22T06:22:00;6.38;;;4.57;;
11839;SDS011;5979;50.800;4.904;2022-07-22T06:24:26;5.85;;;4.35;;
11839;SDS011;5979;50.800;4.904;2022-07-22T06:26:52;5.18;;;4.78;;
11839;SDS011;5979;50.800;4.904;2022-07-22T06:29:18;5.40;;;4.53;;
11839;SDS011;5979;50.800;4.904;2022-07-22T06:31:43;6.03;;;4.55;;
11839;SDS011;5979;50.800;4.904;2022-07-22T06:34:09;4.50;;;4.20;;
11839;SDS011;5979;50.800;4.904;2022-07-22T06:36:35;10.05;;;5.63;;
11839;SDS011;5979;50.800;4.904;2022-07-22T06:39:01;5.35;;;4.88;;
11839;SDS011;5979;50.800;4.904;2022-07-22T06:41:26;6.50;;;5.15;;
11839;SDS011;5979;50.800;4.904;2022-07-22T06:43:52;7.93;;;5.28;;
11839;SDS011;5979;50.800;4.904;2022-07-22T06:46:18;6.15;;;4.97;;
11839;SDS011;5979;50.800;4.904;2022-07-22T06:48:43;6.05;;;5.38;;
11839;SDS011;5979;50.800;4.904;2022-07-22T06:51:09;5.70;;;5.20;;
11839;SDS011;5979;50.800;4.904;2022-07-22T06:53:35;5.60;;;5.03;;
11839;SDS011;5979;50.800;4.904;2022-07-22T06:56:01;7.00;;;5.28;;
11839;SDS011;5979;50.800;4.904;2022-07-22T06:58:27;7.40;;;5.50;;
11839;SDS011;5979;50.800;4.904;2022-07-22T07:00:52;7.38;;;5.25;;
11839;SDS011;5979;50.800;4.904;2022-07-22T07:03:18;6.43;;;5.13;;
11839;SDS011;5979;50.800;4.904;2022-07-22T07:05:44;6.45;;;5.35;;
11839;SDS011;5979;50.800;4.904;2022-07-22T07:08:09;4.25;;;3.75;;
11839;SDS011;5979;50.800;4.904;2022-07-22T07:10:35;4.63;;;4.10;;
11839;SDS011;5979;50.800;4.904;2022-07-22T07:13:01;4.80;;;3.70;;
11839;SDS011;5979;50.800;4.904;2022-07-22T07:15:27;4.15;;;3.58;;
11839;SDS011;5979;50.800;4.904;2022-07-22T07:17:53;3.53;;;3.28;;
11839;SDS011;5979;50.800;4.904;2022-07-22T07:20:20;3.30;;;3.10;;
11839;SDS011;5979;50.800;4.904;2022-07-22T07:22:46;4.00;;;3.10;;
11839;SDS011;5979;50.800;4.904;2022-07-22T07:25:11;3.97;;;3.60;;
11839;SDS011;5979;50.800;4.904;2022-07-22T07:27:37;4.57;;;3.08;;
11839;SDS011;5979;50.800;4.904;2022-07-22T07:30:04;3.30;;;3.00;;
11839;SDS011;5979;50.800;4.904;2022-07-22T07:32:31;4.38;;;3.13;;
11839;SDS011;5979;50.800;4.904;2022-07-22T07:34:56;5.10;;;3.20;;
11839;SDS011;5979;50.800;4.904;2022-07-22T07:37:22;3.55;;;3.35;;
11839;SDS011;5979;50.800;4.904;2022-07-22T07:39:47;4.93;;;3.80;;
11839;SDS011;5979;50.800;4.904;2022-07-22T07:42:13;3.38;;;3.08;;
11839;SDS011;5979;50.800;4.904;2022-07-22T07:44:39;3.95;;;3.00;;
11839;SDS011;5979;50.800;4.904;2022-07-22T07:47:04;3.15;;;2.85;;
11839;SDS011;5979;50.800;4.904;2022-07-22T07:49:30;3.10;;;2.80;;
11839;SDS011;5979;50.800;4.904;2022-07-22T07:51:56;4.10;;;3.13;;
11839;SDS011;5979;50.800;4.904;2022-07-22T07:54:21;3.58;;;2.67;;
11839;SDS011;5979;50.800;4.904;2022-07-22T07:56:47;3.75;;;2.55;;
11839;SDS011;5979;50.800;4.904;2022-07-22T07:59:13;3.17;;;2.88;;
11839;SDS011;5979;50.800;4.904;2022-07-22T08:01:39;3.17;;;2.65;;
11839;SDS011;5979;50.800;4.904;2022-07-22T08:04:04;3.78;;;2.95;;
11839;SDS011;5979;50.800;4.904;2022-07-22T08:06:30;3.28;;;3.08;;
11839;SDS011;5979;50.800;4.904;2022-07-22T08:08:56;3.78;;;3.17;;
11839;SDS011;5979;50.800;4.904;2022-07-22T08:11:21;4.82;;;3.03;;
11839;SDS011;5979;50.800;4.904;2022-07-22T08:13:48;3.38;;;3.05;;
11839;SDS011;5979;50.800;4.904;2022-07-22T08:16:14;3.30;;;3.00;;
11839;SDS011;5979;50.800;4.904;2022-07-22T08:18:40;3.33;;;3.08;;
11839;SDS011;5979;50.800;4.904;2022-07-22T08:21:06;4.20;;;3.13;;
11839;SDS011;5979;50.800;4.904;2022-07-22T08:23:32;3.80;;;3.28;;
11839;SDS011;5979;50.800;4.904;2022-07-22T08:25:58;3.45;;;3.25;;
11839;SDS011;5979;50.800;4.904;2022-07-22T08:28:24;5.32;;;3.50;;
11839;SDS011;5979;50.800;4.904;2022-07-22T08:30:50;3.55;;;3.25;;
11839;SDS011;5979;50.800;4.904;2022-07-22T08:33:16;3.70;;;3.17;;
11839;SDS011;5979;50.800;4.904;2022-07-22T08:35:42;3.03;;;2.83;;
11839;SDS011;5979;50.800;4.904;2022-07-22T08:38:08;5.22;;;3.15;;
11839;SDS011;5979;50.800;4.904;2022-07-22T08:40:33;4.18;;;2.95;;
11839;SDS011;5979;50.800;4.904;2022-07-22T08:42:59;3.25;;;3.00;;
11839;SDS011;5979;50.800;4.904;2022-07-22T08:45:28;2.97;;;2.75;;
11839;SDS011;5979;50.800;4.904;2022-07-22T08:47:54;2.92;;;2.70;;
11839;SDS011;5979;50.800;4.904;2022-07-22T08:50:21;3.90;;;2.88;;
11839;SDS011;5979;50.800;4.904;2022-07-22T08:52:46;3.50;;;3.20;;
11839;SDS011;5979;50.800;4.904;2022-07-22T08:55:12;3.85;;;2.63;;
11839;SDS011;5979;50.800;4.904;2022-07-22T08:57:43;3.45;;;2.90;;
11839;SDS011;5979;50.800;4.904;2022-07-22T09:00:17;2.90;;;2.50;;
11839;SDS011;5979;50.800;4.904;2022-07-22T09:02:46;3.65;;;2.85;;
11839;SDS011;5979;50.800;4.904;2022-07-22T09:05:13;4.13;;;2.70;;
11839;SDS011;5979;50.800;4.904;2022-07-22T09:07:42;3.45;;;2.53;;
11839;SDS011;5979;50.800;4.904;2022-07-22T09:10:09;3.47;;;2.58;;
11839;SDS011;5979;50.800;4.904;2022-07-22T09:12:59;2.90;;;2.60;;
11839;SDS011;5979;50.800;4.904;2022-07-22T09:15:28;3.15;;;2.85;;
11839;SDS011;5979;50.800;4.904;2022-07-22T09:17:56;3.17;;;2.88;;
11839;SDS011;5979;50.800;4.904;2022-07-22T09:20:22;3.70;;;2.80;;
11839;SDS011;5979;50.800;4.904;2022-07-22T09:22:49;5.13;;;2.80;;
11839;SDS011;5979;50.800;4.904;2022-07-22T09:30:33;3.17;;;2.90;;
11839;SDS011;5979;50.800;4.904;2022-07-22T09:33:02;2.75;;;2.50;;
11839;SDS011;5979;50.800;4.904;2022-07-22T09:35:28;5.20;;;2.90;;
11839;SDS011;5979;50.800;4.904;2022-07-22T09:40:22;2.85;;;2.65;;
11839;SDS011;5979;50.800;4.904;2022-07-22T09:42:56;3.08;;;2.50;;
11839;SDS011;5979;50.800;4.904;2022-07-22T09:45:27;3.08;;;2.78;;
11839;SDS011;5979;50.800;4.904;2022-07-22T09:47:55;3.95;;;2.55;;
11839;SDS011;5979;50.800;4.904;2022-07-22T09:50:22;2.70;;;2.50;;
11839;SDS011;5979;50.800;4.904;2022-07-22T09:52:50;2.97;;;2.63;;
11839;SDS011;5979;50.800;4.904;2022-07-22T09:55:17;2.67;;;2.55;;
11839;SDS011;5979;50.800;4.904;2022-07-22T09:57:44;2.70;;;2.50;;
11839;SDS011;5979;50.800;4.904;2022-07-22T10:00:15;3.70;;;2.97;;
11839;SDS011;5979;50.800;4.904;2022-07-22T10:02:46;3.13;;;2.75;;
11839;SDS011;5979;50.800;4.904;2022-07-22T10:05:17;2.92;;;2.47;;
11839;SDS011;5979;50.800;4.904;2022-07-22T10:07:49;3.28;;;2.75;;
11839;SDS011;5979;50.800;4.904;2022-07-22T10:10:16;2.95;;;2.75;;
11839;SDS011;5979;50.800;4.904;2022-07-22T10:12:44;3.10;;;2.80;;
11839;SDS011;5979;50.800;4.904;2022-07-22T10:15:12;3.45;;;3.00;;
11839;SDS011;5979;50.800;4.904;2022-07-22T10:17:39;4.00;;;2.58;;
11839;SDS011;5979;50.800;4.904;2022-07-22T10:20:07;2.38;;;2.22;;
11839;SDS011;5979;50.800;4.904;2022-07-22T10:25:12;3.88;;;2.75;;
11839;SDS011;5979;50.800;4.904;2022-07-22T10:27:49;2.53;;;2.42;;
11839;SDS011;5979;50.800;4.904;2022-07-22T10:30:19;4.68;;;2.53;;
11839;SDS011;5979;50.800;4.904;2022-07-22T10:33:06;3.22;;;2.95;;
11839;SDS011;5979;50.800;4.904;2022-07-22T10:36:00;4.03;;;2.78;;
11839;SDS011;5979;50.800;4.904;2022-07-22T10:38:28;2.60;;;2.40;;
11839;SDS011;5979;50.800;4.904;2022-07-22T10:40:55;2.40;;;2.20;;
11839;SDS011;5979;50.800;4.904;2022-07-22T10:43:28;2.90;;;2.70;;
11839;SDS011;5979;50.800;4.904;2022-07-22T10:51:09;2.85;;;2.00;;
11839;SDS011;5979;50.800;4.904;2022-07-22T10:53:52;2.55;;;2.30;;
11839;SDS011;5979;50.800;4.904;2022-07-22T10:56:29;2.75;;;2.55;;
11839;SDS011;5979;50.800;4.904;2022-07-22T11:01:23;2.75;;;2.55;;
11839;SDS011;5979;50.800;4.904;2022-07-22T11:03:51;2.70;;;2.50;;
11839;SDS011;5979;50.800;4.904;2022-07-22T11:09:00;2.90;;;2.70;;
11839;SDS011;5979;50.800;4.904;2022-07-22T11:11:37;2.25;;;2.13;;
11839;SDS011;5979;50.800;4.904;2022-07-22T11:16:47;2.40;;;2.20;;
11839;SDS011;5979;50.800;4.904;2022-07-22T11:19:14;2.33;;;2.13;;
11839;SDS011;5979;50.800;4.904;2022-07-22T11:21:48;3.15;;;2.47;;
11839;SDS011;5979;50.800;4.904;2022-07-22T11:24:24;2.47;;;2.25;;
11839;SDS011;5979;50.800;4.904;2022-07-22T11:26:51;2.80;;;2.60;;
11839;SDS011;5979;50.800;4.904;2022-07-22T11:29:28;2.55;;;2.42;;
11839;SDS011;5979;50.800;4.904;2022-07-22T11:31:56;2.70;;;2.50;;
11839;SDS011;5979;50.800;4.904;2022-07-22T11:34:23;3.28;;;2.63;;
11839;SDS011;5979;50.800;4.904;2022-07-22T11:36:50;2.60;;;2.40;;
11839;SDS011;5979;50.800;4.904;2022-07-22T11:39:18;2.95;;;2.50;;
11839;SDS011;5979;50.800;4.904;2022-07-22T11:41:46;4.05;;;2.50;;
11839;SDS011;5979;50.800;4.904;2022-07-22T11:44:12;4.15;;;2.70;;
11839;SDS011;5979;50.800;4.904;2022-07-22T11:46:42;2.75;;;2.50;;
11839;SDS011;5979;50.800;4.904;2022-07-22T11:49:08;2.70;;;2.47;;
11839;SDS011;5979;50.800;4.904;2022-07-22T11:51:37;2.70;;;2.60;;
11839;SDS011;5979;50.800;4.904;2022-07-22T11:54:04;2.97;;;2.55;;
11839;SDS011;5979;50.800;4.904;2022-07-22T11:56:30;3.90;;;2.50;;
11839;SDS011;5979;50.800;4.904;2022-07-22T11:58:57;4.97;;;2.88;;
11839;SDS011;5979;50.800;4.904;2022-07-22T12:01:24;3.20;;;2.50;;
11839;SDS011;5979;50.800;4.904;2022-07-22T12:03:52;2.75;;;2.55;;
11839;SDS011;5979;50.800;4.904;2022-07-22T12:06:21;2.83;;;2.67;;
11839;SDS011;5979;50.800;4.904;2022-07-22T12:08:48;3.40;;;2.88;;
11839;SDS011;5979;50.800;4.904;2022-07-22T12:11:22;5.38;;;3.08;;
11839;SDS011;5979;50.800;4.904;2022-07-22T12:13:50;2.90;;;2.70;;
11839;SDS011;5979;50.800;4.904;2022-07-22T12:16:38;5.35;;;2.45;;
11839;SDS011;5979;50.800;4.904;2022-07-22T12:19:05;2.58;;;2.38;;
11839;SDS011;5979;50.800;4.904;2022-07-22T12:21:37;3.45;;;3.05;;
11839;SDS011;5979;50.800;4.904;2022-07-22T12:24:16;2.78;;;2.58;;
11839;SDS011;5979;50.800;4.904;2022-07-22T12:26:49;2.58;;;2.38;;
11839;SDS011;5979;50.800;4.904;2022-07-22T12:31:45;3.90;;;2.72;;
11839;SDS011;5979;50.800;4.904;2022-07-22T12:34:15;2.90;;;2.60;;
11839;SDS011;5979;50.800;4.904;2022-07-22T12:36:53;4.80;;;2.70;;
11839;SDS011;5979;50.800;4.904;2022-07-22T12:39:18;5.78;;;3.13;;
11839;SDS011;5979;50.800;4.904;2022-07-22T12:41:48;2.55;;;2.35;;
11839;SDS011;5979;50.800;4.904;2022-07-22T12:44:21;4.53;;;3.05;;
11839;SDS011;5979;50.800;4.904;2022-07-22T12:46:53;3.67;;;2.95;;
11839;SDS011;5979;50.800;4.904;2022-07-22T12:49:22;2.78;;;2.58;;
11839;SDS011;5979;50.800;4.904;2022-07-22T12:52:08;2.55;;;2.45;;
11839;SDS011;5979;50.800;4.904;2022-07-22T12:54:38;2.75;;;2.55;;
11839;SDS011;5979;50.800;4.904;2022-07-22T12:57:06;3.30;;;2.60;;
11839;SDS011;5979;50.800;4.904;2022-07-22T12:59:34;3.08;;;2.80;;
11839;SDS011;5979;50.800;4.904;2022-07-22T13:02:01;4.18;;;3.10;;
11839;SDS011;5979;50.800;4.904;2022-07-22T13:04:27;3.50;;;2.97;;
11839;SDS011;5979;50.800;4.904;2022-07-22T13:06:53;3.97;;;2.63;;
11839;SDS011;5979;50.800;4.904;2022-07-22T13:09:18;3.35;;;2.83;;
11839;SDS011;5979;50.800;4.904;2022-07-22T13:11:44;5.47;;;2.92;;
11839;SDS011;5979;50.800;4.904;2022-07-22T13:14:11;2.90;;;2.70;;
11839;SDS011;5979;50.800;4.904;2022-07-22T13:16:37;2.33;;;2.10;;
11839;SDS011;5979;50.800;4.904;2022-07-22T13:19:03;3.95;;;2.78;;
11839;SDS011;5979;50.800;4.904;2022-07-22T13:21:29;2.63;;;2.42;;
11839;SDS011;5979;50.800;4.904;2022-07-22T13:23:54;2.80;;;2.60;;
11839;SDS011;5979;50.800;4.904;2022-07-22T13:26:20;2.90;;;2.70;;
11839;SDS011;5979;50.800;4.904;2022-07-22T13:28:46;2.90;;;2.70;;
11839;SDS011;5979;50.800;4.904;2022-07-22T13:31:12;3.38;;;2.95;;
11839;SDS011;5979;50.800;4.904;2022-07-22T13:33:38;3.00;;;2.60;;
11839;SDS011;5979;50.800;4.904;2022-07-22T13:36:04;4.45;;;2.90;;
11839;SDS011;5979;50.800;4.904;2022-07-22T13:38:30;3.35;;;3.03;;
11839;SDS011;5979;50.800;4.904;2022-07-22T13:40:56;3.03;;;2.67;;
11839;SDS011;5979;50.800;4.904;2022-07-22T13:43:22;3.22;;;2.85;;
11839;SDS011;5979;50.800;4.904;2022-07-22T13:45:49;3.35;;;3.08;;
11839;SDS011;5979;50.800;4.904;2022-07-22T13:48:16;2.90;;;2.75;;
11839;SDS011;5979;50.800;4.904;2022-07-22T13:50:45;4.20;;;3.03;;
11839;SDS011;5979;50.800;4.904;2022-07-22T13:53:11;3.20;;;2.80;;
11839;SDS011;5979;50.800;4.904;2022-07-22T13:55:40;2.75;;;2.55;;
11839;SDS011;5979;50.800;4.904;2022-07-22T13:58:06;2.90;;;2.40;;
11839;SDS011;5979;50.800;4.904;2022-07-22T14:00:32;4.28;;;2.72;;
11839;SDS011;5979;50.800;4.904;2022-07-22T14:02:58;3.33;;;2.38;;
11839;SDS011;5979;50.800;4.904;2022-07-22T14:05:24;3.00;;;2.70;;
11839;SDS011;5979;50.800;4.904;2022-07-22T14:07:51;3.20;;;2.90;;
11839;SDS011;5979;50.800;4.904;2022-07-22T14:10:16;3.83;;;2.78;;
11839;SDS011;5979;50.800;4.904;2022-07-22T14:12:42;2.85;;;2.65;;
11839;SDS011;5979;50.800;4.904;2022-07-22T14:15:08;3.35;;;3.05;;
11839;SDS011;5979;50.800;4.904;2022-07-22T14:17:34;3.15;;;2.90;;
11839;SDS011;5979;50.800;4.904;2022-07-22T14:20:00;3.38;;;3.08;;
11839;SDS011;5979;50.800;4.904;2022-07-22T14:22:26;3.28;;;2.97;;
11839;SDS011;5979;50.800;4.904;2022-07-22T14:24:52;3.72;;;2.90;;
11839;SDS011;5979;50.800;4.904;2022-07-22T14:27:18;4.20;;;3.03;;
11839;SDS011;5979;50.800;4.904;2022-07-22T14:29:43;3.78;;;3.00;;
11839;SDS011;5979;50.800;4.904;2022-07-22T14:32:09;3.15;;;2.95;;
11839;SDS011;5979;50.800;4.904;2022-07-22T14:34:35;3.53;;;3.15;;
11839;SDS011;5979;50.800;4.904;2022-07-22T14:37:00;3.45;;;2.85;;
11839;SDS011;5979;50.800;4.904;2022-07-22T14:39:26;2.78;;;2.58;;
11839;SDS011;5979;50.800;4.904;2022-07-22T14:41:52;3.50;;;3.20;;
11839;SDS011;5979;50.800;4.904;2022-07-22T14:44:17;3.10;;;2.83;;
11839;SDS011;5979;50.800;4.904;2022-07-22T14:46:43;2.90;;;2.70;;
11839;SDS011;5979;50.800;4.904;2022-07-22T14:49:09;2.75;;;2.55;;
11839;SDS011;5979;50.800;4.904;2022-07-22T14:51:34;3.42;;;2.80;;
11839;SDS011;5979;50.800;4.904;2022-07-22T14:54:00;3.00;;;2.80;;
11839;SDS011;5979;50.800;4.904;2022-07-22T14:56:26;5.28;;;3.15;;
11839;SDS011;5979;50.800;4.904;2022-07-22T14:58:52;3.47;;;3.20;;
11839;SDS011;5979;50.800;4.904;2022-07-22T15:01:18;3.60;;;3.30;;
11839;SDS011;5979;50.800;4.904;2022-07-22T15:03:43;3.15;;;2.92;;
11839;SDS011;5979;50.800;4.904;2022-07-22T15:06:09;2.78;;;2.60;;
11839;SDS011;5979;50.800;4.904;2022-07-22T15:08:35;2.97;;;2.78;;
11839;SDS011;5979;50.800;4.904;2022-07-22T15:11:01;4.43;;;3.30;;
11839;SDS011;5979;50.800;4.904;2022-07-22T15:13:27;3.55;;;2.80;;
11839;SDS011;5979;50.800;4.904;2022-07-22T15:15:54;4.95;;;3.05;;
11839;SDS011;5979;50.800;4.904;2022-07-22T15:18:20;4.38;;;3.25;;
11839;SDS011;5979;50.800;4.904;2022-07-22T15:20:46;4.43;;;3.03;;
11839;SDS011;5979;50.800;4.904;2022-07-22T15:23:11;3.20;;;3.00;;